Time;durP1;ratioP1;P1;durP2;ratioP2;P2;SDS_P1;SDS_P2;PMS_P1;PMS_P2;Temp;Humidity;BMP_temperature;BMP_pressure;BME280_temperature;BME280_humidity;BME280_pressure;Samples;Min_cycle;Max_cycle;Signal;HPM_P1;HPM_P2
2022/04/05 00:01:27;;;;;;;9.93;6.62;;;;;;;1.54;83.95;98192.31;4379385;32;20098;-71
2022/04/05 00:04:33;;;;;;;10.68;7.00;;;;;;;1.52;83.76;98188.22;4379230;32;20099;-71
2022/04/05 00:07:36;;;;;;;10.65;6.55;;;;;;;1.33;84.81;98191.06;4379528;32;20105;-71
2022/04/05 00:10:04;;;;;;;8.68;6.00;;;;;;;1.14;86.00;98181.88;4379219;32;20110;-71
2022/04/05 00:12:31;;;;;;;10.52;7.07;;;;;;;1.08;86.23;98178.84;4379451;32;20440;-71
2022/04/05 00:14:58;;;;;;;9.95;6.62;;;;;;;0.91;87.02;98182.41;4379149;32;20486;-71
2022/04/05 00:17:25;;;;;;;9.95;6.18;;;;;;;0.86;87.78;98170.63;4379334;32;20441;-71
2022/04/05 00:19:53;;;;;;;10.90;7.15;;;;;;;1.00;88.00;98168.97;4379380;32;20083;-71
2022/04/05 00:22:20;;;;;;;9.65;6.45;;;;;;;1.42;86.06;98164.69;4379245;32;20102;-71
2022/04/05 00:24:47;;;;;;;11.88;6.62;;;;;;;1.93;83.57;98159.78;4377559;32;20102;-71
2022/04/05 00:27:14;;;;;;;19.40;6.87;;;;;;;2.16;81.74;98167.00;4378932;32;20087;-71
2022/04/05 00:29:42;;;;;;;10.43;6.82;;;;;;;2.07;82.63;98163.22;4378697;32;20137;-71
2022/04/05 00:32:09;;;;;;;9.55;6.00;;;;;;;2.19;82.05;98157.28;4378866;32;20102;-71
2022/04/05 00:34:37;;;;;;;12.30;6.45;;;;;;;2.54;81.12;98161.06;4378962;32;20124;-71
2022/04/05 00:37:04;;;;;;;9.73;5.75;;;;;;;2.42;82.00;98157.53;4378930;32;20121;-71
2022/04/05 00:39:31;;;;;;;9.10;6.43;;;;;;;2.43;81.88;98157.44;4378774;32;20107;-71
2022/04/05 00:41:58;;;;;;;10.88;6.53;;;;;;;2.92;80.34;98155.94;4378886;32;20369;-71
2022/04/05 00:44:26;;;;;;;9.15;5.78;;;;;;;3.03;79.41;98147.44;4378835;32;20789;-71
2022/04/05 00:46:54;;;;;;;10.93;5.72;;;;;;;3.27;78.50;98144.91;4378689;32;20554;-71
2022/04/05 00:49:30;;;;;;;10.70;5.95;;;;;;;3.40;77.79;98144.06;4365125;32;20117;-71
2022/04/05 00:51:58;;;;;;;9.40;5.85;;;;;;;3.21;78.93;98140.16;4377421;32;20107;-71
2022/04/05 00:54:26;;;;;;;14.45;6.37;;;;;;;3.04;78.74;98140.47;4378679;32;20121;-71
2022/04/05 00:56:56;;;;;;;14.35;6.37;;;;;;;3.17;78.35;98138.72;4365147;32;20113;-71
2022/04/05 00:59:26;;;;;;;11.52;6.28;;;;;;;3.26;78.25;98139.84;4365135;32;20106;-71
2022/04/05 01:01:54;;;;;;;8.70;6.03;;;;;;;3.25;78.14;98131.22;4365165;32;20170;-71
2022/04/05 01:04:22;;;;;;;13.15;6.87;;;;;;;2.96;79.44;98134.06;4378479;32;20106;-71
2022/04/05 01:06:49;;;;;;;11.48;6.68;;;;;;;2.77;80.44;98120.72;4378325;32;20160;-71
2022/04/05 01:09:17;;;;;;;10.77;6.53;;;;;;;2.73;80.79;98127.06;4378472;32;20075;-71
2022/04/05 01:11:45;;;;;;;9.77;6.35;;;;;;;2.61;81.75;98132.09;4364921;32;20098;-71
2022/04/05 01:14:12;;;;;;;11.85;6.93;;;;;;;2.63;81.39;98129.41;4378332;32;20106;-71
2022/04/05 01:16:39;;;;;;;10.65;6.65;;;;;;;2.62;82.05;98128.59;4378377;32;20099;-71
2022/04/05 01:19:07;;;;;;;10.20;6.35;;;;;;;2.55;81.93;98127.34;4378618;32;20103;-71
2022/04/05 01:21:36;;;;;;;9.57;6.57;;;;;;;2.63;81.72;98130.28;4378212;32;20114;-71
2022/04/05 01:24:14;;;;;;;10.77;6.35;;;;;;;2.62;81.86;98131.19;4364895;32;20102;-71
2022/04/05 01:26:49;;;;;;;10.18;6.35;;;;;;;2.81;80.82;98125.59;4378387;32;20159;-71
2022/04/05 01:29:18;;;;;;;9.38;5.95;;;;;;;2.87;80.77;98121.75;4364532;32;20075;-71
2022/04/05 01:31:51;;;;;;;16.08;6.93;;;;;;;2.88;80.84;98127.75;4378000;32;20165;-71
2022/04/05 01:34:22;;;;;;;10.13;6.17;;;;;;;2.77;80.93;98129.34;4378052;32;20569;-71
2022/04/05 01:36:51;;;;;;;9.10;6.30;;;;;;;3.05;79.86;98122.25;4379799;32;20127;-71
2022/04/05 01:39:20;;;;;;;12.68;6.20;;;;;;;3.00;79.96;98121.75;4380242;32;20198;-71
2022/04/05 01:41:58;;;;;;;8.85;5.72;;;;;;;3.05;79.64;98124.03;4380192;32;20098;-71
2022/04/05 01:44:26;;;;;;;7.70;5.75;;;;;;;3.01;80.28;98124.25;4380314;32;20095;-71
2022/04/05 01:46:53;;;;;;;9.63;5.95;;;;;;;3.13;79.47;98121.72;4380093;32;20086;-71
2022/04/05 01:49:21;;;;;;;9.45;6.35;;;;;;;3.30;78.61;98126.56;4380124;32;20452;-71
2022/04/05 01:51:50;;;;;;;8.93;6.00;;;;;;;3.33;78.60;98121.19;4380005;32;20230;-71
2022/04/05 01:54:17;;;;;;;9.25;5.78;;;;;;;3.20;79.12;98128.97;4379952;32;20519;-71
2022/04/05 01:56:46;;;;;;;11.50;6.60;;;;;;;3.17;79.42;98115.41;4380112;32;20104;-71
2022/04/05 01:59:20;;;;;;;11.05;5.85;;;;;;;3.23;79.35;98109.81;4380063;32;20090;-71
2022/04/05 02:01:47;;;;;;;11.60;6.53;;;;;;;3.12;79.80;98110.56;4380110;32;20113;-71
2022/04/05 02:04:15;;;;;;;10.98;6.68;;;;;;;3.11;80.42;98108.09;4380205;32;20122;-71
2022/04/05 02:06:43;;;;;;;10.73;6.40;;;;;;;2.93;80.32;98100.66;4366553;32;20103;-71
2022/04/05 02:09:14;;;;;;;11.15;6.65;;;;;;;2.92;80.86;98099.00;4380178;32;20165;-71
2022/04/05 02:11:43;;;;;;;11.05;6.55;;;;;;;3.11;80.00;98098.53;4380138;32;20441;-71
2022/04/05 02:14:12;;;;;;;11.25;5.62;;;;;;;3.14;79.73;98106.09;4380135;32;20099;-71
2022/04/05 02:16:40;;;;;;;9.85;6.07;;;;;;;3.14;79.30;98103.50;4380259;32;20570;-71
2022/04/05 02:19:07;;;;;;;9.40;6.37;;;;;;;3.21;79.43;98103.94;4380111;32;20090;-71
2022/04/05 02:21:35;;;;;;;9.38;5.87;;;;;;;3.27;78.65;98100.91;4380245;32;20136;-71
2022/04/05 02:24:04;;;;;;;12.02;6.15;;;;;;;3.35;78.58;98103.78;4379875;32;20094;-71
2022/04/05 02:26:33;;;;;;;8.82;5.97;;;;;;;3.57;78.09;98107.41;4380199;32;20586;-71
2022/04/05 02:29:00;;;;;;;12.70;6.55;;;;;;;3.75;76.69;98112.22;4379752;32;20101;-71
2022/04/05 02:31:29;;;;;;;8.30;6.15;;;;;;;3.45;78.07;98101.38;4380100;32;20181;-71
2022/04/05 02:33:57;;;;;;;10.73;6.15;;;;;;;3.38;78.95;98100.16;4380140;32;20150;-71
2022/04/05 02:36:24;;;;;;;8.80;6.03;;;;;;;3.33;79.63;98097.03;4380052;32;20146;-71
2022/04/05 02:38:52;;;;;;;11.65;6.47;;;;;;;3.11;81.23;98093.38;4380108;32;20086;-71
2022/04/05 02:41:21;;;;;;;9.80;6.25;;;;;;;3.06;80.54;98085.12;4380062;32;20162;-71
2022/04/05 02:43:49;;;;;;;10.05;6.25;;;;;;;3.14;80.14;98087.97;4379914;32;20496;-71
2022/04/05 02:46:16;;;;;;;9.43;5.90;;;;;;;3.31;79.56;98078.22;4379613;32;20082;-71
2022/04/05 02:48:46;;;;;;;10.60;6.68;;;;;;;3.12;80.39;98079.50;4379042;32;20154;-71
2022/04/05 02:51:15;;;;;;;10.35;6.35;;;;;;;3.44;78.40;98083.34;4379990;32;20087;-71
2022/04/05 02:53:43;;;;;;;12.35;6.60;;;;;;;3.38;78.72;98085.44;4380003;32;20566;-71
2022/04/05 02:56:11;;;;;;;11.35;6.70;;;;;;;3.15;80.12;98070.69;4379865;32;20465;-71
2022/04/05 02:58:38;;;;;;;8.95;6.22;;;;;;;2.99;80.98;98073.53;4379698;32;20441;-71
2022/04/05 03:01:06;;;;;;;10.23;6.03;;;;;;;3.10;80.88;98072.78;4379870;32;20795;-71
2022/04/05 03:03:34;;;;;;;12.15;6.37;;;;;;;3.08;80.47;98072.06;4379997;32;20165;-71
2022/04/05 03:06:02;;;;;;;8.55;6.10;;;;;;;3.00;80.55;98065.66;4379988;32;20095;-71
2022/04/05 03:08:30;;;;;;;9.15;6.43;;;;;;;3.14;80.09;98062.09;4379630;32;20134;-71
2022/04/05 03:11:01;;;;;;;11.73;6.15;;;;;;;3.02;80.24;98055.19;4379893;32;20098;-71
2022/04/05 03:13:28;;;;;;;12.00;6.07;;;;;;;3.27;79.11;98053.47;4379899;32;20111;-71
2022/04/05 03:15:56;;;;;;;8.00;5.37;;;;;;;3.19;79.52;98054.00;4379549;32;20109;-71
2022/04/05 03:18:24;;;;;;;10.38;5.57;;;;;;;3.29;79.32;98047.25;4379852;32;20090;-71
2022/04/05 03:20:53;;;;;;;8.10;5.07;;;;;;;3.21;78.99;98046.97;4379835;32;20460;-71
2022/04/05 03:23:21;;;;;;;8.05;5.43;;;;;;;3.11;79.47;98041.63;4379420;32;20145;-71
2022/04/05 03:25:49;;;;;;;8.50;5.00;;;;;;;3.19;78.99;98035.91;4379486;32;20091;-71
2022/04/05 03:28:18;;;;;;;8.55;5.65;;;;;;;3.11;79.39;98045.97;4379572;32;20116;-71
2022/04/05 03:30:47;;;;;;;7.30;5.60;;;;;;;3.32;79.03;98046.22;4379411;32;20087;-71
2022/04/05 03:33:15;;;;;;;8.35;5.18;;;;;;;3.28;79.42;98047.38;4379646;32;20137;-71
2022/04/05 03:35:42;;;;;;;6.90;4.72;;;;;;;3.34;79.02;98047.75;4379561;32;20075;-71
2022/04/05 03:38:10;;;;;;;8.13;4.93;;;;;;;3.44;78.39;98044.53;4379458;32;20161;-71
2022/04/05 03:40:39;;;;;;;8.50;5.60;;;;;;;3.46;77.89;98050.41;4379389;32;20098;-71
2022/04/05 03:43:11;;;;;;;7.80;4.82;;;;;;;3.43;77.70;98035.91;4379494;32;20218;-71
2022/04/05 03:45:39;;;;;;;8.35;5.50;;;;;;;3.42;77.65;98038.59;4379513;32;20121;-71
2022/04/05 03:48:07;;;;;;;7.47;5.47;;;;;;;3.67;76.91;98037.69;4379229;32;20655;-71
2022/04/05 03:50:34;;;;;;;8.75;5.12;;;;;;;3.55;76.82;98044.56;4379390;32;20176;-71
2022/04/05 03:53:01;;;;;;;9.30;5.62;;;;;;;3.46;77.65;98037.47;4379469;32;20099;-71
2022/04/05 03:55:29;;;;;;;6.87;4.82;;;;;;;3.60;76.88;98046.81;4379617;32;20116;-71
2022/04/05 03:57:57;;;;;;;9.15;5.43;;;;;;;3.36;77.64;98038.12;4379287;32;20091;-71
2022/04/05 04:00:25;;;;;;;10.43;5.45;;;;;;;3.47;77.91;98041.72;4379625;32;20122;-71
2022/04/05 04:02:52;;;;;;;7.43;5.18;;;;;;;3.42;77.99;98036.84;4379491;32;20137;-71
2022/04/05 04:05:20;;;;;;;9.60;5.05;;;;;;;3.49;77.64;98035.47;4379556;32;20110;-70
2022/04/05 04:07:48;;;;;;;12.80;5.65;;;;;;;3.38;78.23;98041.41;4379439;32;20066;-71
2022/04/05 04:10:17;;;;;;;7.75;4.80;;;;;;;3.30;78.78;98041.16;4379510;32;20098;-71
2022/04/05 04:12:50;;;;;;;7.35;5.55;;;;;;;3.15;79.57;98031.84;4379309;32;20091;-71
2022/04/05 04:15:19;;;;;;;7.60;5.57;;;;;;;3.08;80.36;98035.84;4378969;32;20121;-71
2022/04/05 04:17:46;;;;;;;10.68;5.75;;;;;;;3.21;79.19;98039.22;4379263;32;20684;-70
2022/04/05 04:20:14;;;;;;;8.13;4.87;;;;;;;3.42;78.53;98033.44;4379194;32;20480;-71
2022/04/05 04:22:41;;;;;;;7.35;4.93;;;;;;;3.44;78.48;98036.75;4378781;32;20479;-71
2022/04/05 04:25:09;;;;;;;7.57;5.68;;;;;;;3.67;77.93;98038.50;4379041;32;20224;-71
2022/04/05 04:27:36;;;;;;;8.50;5.18;;;;;;;3.49;78.52;98035.47;4379187;32;20108;-71
2022/04/05 04:30:04;;;;;;;10.90;5.18;;;;;;;3.40;78.94;98037.91;4378791;32;20153;-71
2022/04/05 04:32:31;;;;;;;9.52;5.47;;;;;;;3.38;79.44;98041.41;4365537;32;20125;-71
2022/04/05 04:34:59;;;;;;;8.90;5.60;;;;;;;3.57;79.00;98047.03;4378911;32;20435;-71
2022/04/05 04:37:26;;;;;;;7.37;5.30;;;;;;;3.62;78.75;98040.59;4365461;32;20107;-71
2022/04/05 04:39:54;;;;;;;12.13;5.95;;;;;;;3.61;78.92;98046.69;4378811;32;20095;-71
2022/04/05 04:45:51;;;;;;;11.50;6.47;;;;;;;3.75;78.24;98047.47;4378935;32;20392;-71
2022/04/05 04:48:19;;;;;;;8.73;6.12;;;;;;;3.98;77.05;98045.78;4378645;32;20129;-71
2022/04/05 04:50:47;;;;;;;10.90;6.47;;;;;;;3.37;80.16;98051.88;4378788;32;20099;-71
2022/04/05 04:53:15;;;;;;;10.57;6.78;;;;;;;3.33;80.61;98051.28;4378681;32;20234;-71
2022/04/05 04:55:42;;;;;;;12.65;7.28;;;;;;;3.48;80.48;98054.53;4378075;32;20086;-71
2022/04/05 04:58:27;;;;;;;11.45;6.50;;;;;;;3.48;79.96;98049.37;4378504;32;20146;-71
2022/04/05 05:00:55;;;;;;;10.77;6.65;;;;;;;3.36;80.76;98045.03;4378445;32;20157;-71
2022/04/05 05:03:22;;;;;;;10.18;6.68;;;;;;;3.28;81.36;98052.53;4378421;32;20090;-71
2022/04/05 05:05:50;;;;;;;9.18;6.20;;;;;;;3.27;81.79;98051.72;4378391;32;20095;-71
2022/04/05 05:08:17;;;;;;;9.52;6.43;;;;;;;3.12;82.63;98051.03;4378320;32;20095;-71
2022/04/05 05:14:14;;;;;;;9.80;6.05;;;;;;;3.65;80.73;98044.72;4380184;32;20117;-71
2022/04/05 05:16:41;;;;;;;8.38;5.68;;;;;;;3.80;80.01;98041.03;4380165;32;20203;-71
2022/04/05 05:19:09;;;;;;;11.00;6.25;;;;;;;3.74;79.69;98046.66;4366457;32;20141;-71
2022/04/05 05:21:36;;;;;;;10.48;5.90;;;;;;;3.70;79.16;98047.81;4380065;32;20122;-71
2022/04/05 05:24:08;;;;;;;9.52;6.40;;;;;;;4.09;77.65;98036.28;4380500;32;20094;-71
2022/04/05 05:26:36;;;;;;;7.62;5.45;;;;;;;4.19;77.22;98040.75;4380203;32;20083;-71
2022/04/05 05:29:03;;;;;;;8.43;5.55;;;;;;;4.40;76.38;98035.72;4379899;32;20102;-71
2022/04/05 05:31:34;;;;;;;11.18;5.65;;;;;;;4.27;77.03;98043.63;4380134;32;20098;-71
2022/04/05 05:37:32;;;;;;;8.25;5.18;;;;;;;4.14;77.30;98040.28;4379757;32;20148;-71
2022/04/05 05:43:30;;;;;;;9.10;5.43;;;;;;;3.94;78.70;98039.16;4379867;32;20122;-71
2022/04/05 05:45:58;;;;;;;8.63;5.22;;;;;;;4.15;77.47;98026.37;4379990;32;20107;-71
2022/04/05 05:48:25;;;;;;;11.25;4.90;;;;;;;4.49;75.88;98034.22;4380003;32;20493;-71
2022/04/05 05:50:52;;;;;;;6.82;4.78;;;;;;;4.57;75.65;98031.84;4379826;32;20519;-71
2022/04/05 05:53:20;;;;;;;9.80;5.20;;;;;;;4.81;74.32;98047.28;4380094;32;20476;-71
2022/04/05 05:59:17;;;;;;;8.38;5.20;;;;;;;4.77;74.60;98048.50;4379969;32;20117;-71
2022/04/05 06:01:45;;;;;;;9.43;5.05;;;;;;;4.77;75.33;98061.47;4379503;32;20134;-70
2022/04/05 06:04:14;;;;;;;11.12;5.37;;;;;;;4.53;75.99;98058.97;4379855;32;20149;-70
2022/04/05 06:06:42;;;;;;;12.45;5.50;;;;;;;4.80;75.29;98054.28;4379881;32;20161;-70
2022/04/05 06:09:09;;;;;;;9.50;5.55;;;;;;;4.86;75.11;98046.94;4379600;32;20109;-70
2022/04/05 06:11:37;;;;;;;8.02;5.70;;;;;;;5.02;74.70;98052.59;4379170;32;20128;-69
2022/04/05 06:14:04;;;;;;;10.18;5.55;;;;;;;5.26;73.65;98051.63;4366077;32;20099;-71
2022/04/05 06:16:31;;;;;;;8.27;5.00;;;;;;;5.30;74.17;98068.62;4379493;32;20157;-71
2022/04/05 06:19:00;;;;;;;9.25;5.00;;;;;;;5.35;74.24;98071.66;4379639;32;20517;-70
2022/04/05 06:24:57;;;;;;;9.48;5.50;;;;;;;5.65;73.20;98068.41;4379879;32;20149;-70
2022/04/05 06:27:24;;;;;;;9.73;4.87;;;;;;;5.78;73.39;98057.81;4379874;32;20094;-71
2022/04/05 06:29:51;;;;;;;8.23;5.03;;;;;;;6.25;71.09;98048.91;4379488;32;20083;-71
2022/04/05 06:32:18;;;;;;;8.95;5.00;;;;;;;6.37;69.36;98050.47;4379717;32;20075;-71
2022/04/05 06:34:45;;;;;;;9.88;5.45;;;;;;;6.47;69.16;98056.56;4379792;32;20138;-71
2022/04/05 06:37:12;;;;;;;7.37;5.15;;;;;;;6.49;68.59;98059.84;4379885;32;20544;-71
2022/04/05 06:39:40;;;;;;;8.63;5.60;;;;;;;6.33;70.04;98054.31;4379859;32;20149;-70
2022/04/05 06:42:07;;;;;;;7.35;4.60;;;;;;;6.43;70.58;98049.94;4379635;32;20134;-71
2022/04/05 06:44:34;;;;;;;9.60;5.60;;;;;;;6.65;68.56;98053.38;4379713;32;20121;-70
2022/04/05 06:47:01;;;;;;;11.60;5.20;;;;;;;6.84;67.92;98056.03;4379245;32;20099;-71
2022/04/05 06:49:29;;;;;;;10.35;5.70;;;;;;;6.88;67.32;98057.44;4379259;32;20118;-70
2022/04/05 06:51:56;;;;;;;8.32;5.62;;;;;;;6.80;68.35;98061.62;4379690;32;20393;-70
2022/04/05 06:54:24;;;;;;;11.35;5.12;;;;;;;6.88;68.30;98062.63;4379711;32;20515;-71
2022/04/05 06:56:51;;;;;;;8.13;5.10;;;;;;;6.84;69.41;98056.03;4379614;32;20098;-70
2022/04/05 06:59:18;;;;;;;9.50;4.85;;;;;;;7.44;66.78;98060.47;4379706;32;20102;-70
2022/04/05 07:01:46;;;;;;;6.60;4.40;;;;;;;7.79;65.02;98054.72;4379676;32;20090;-71
2022/04/05 07:07:31;;;;;;;7.90;5.18;;;;;;;8.10;63.90;98056.34;4379415;32;20433;-71
2022/04/05 07:13:30;;;;;;;8.10;5.20;;;;;;;8.39;61.52;98061.56;4379101;32;20101;-71
2022/04/05 07:15:58;;;;;;;14.93;5.43;;;;;;;8.55;61.19;98060.97;4379305;32;20122;-71
2022/04/05 07:18:25;;;;;;;9.40;4.95;;;;;;;8.69;62.26;98068.38;4379019;32;20099;-71
2022/04/05 07:24:22;;;;;;;8.13;5.10;;;;;;;9.01;62.34;98067.16;4378827;32;20477;-70
2022/04/05 07:26:50;;;;;;;13.73;5.87;;;;;;;9.72;60.82;98057.78;4378975;32;20121;-71
2022/04/05 07:29:17;;;;;;;9.32;5.47;;;;;;;9.89;58.66;98058.75;4378432;32;20453;-71
2022/04/05 07:31:44;;;;;;;8.20;5.20;;;;;;;9.21;61.15;98059.22;4378960;32;20194;-71
2022/04/05 07:37:30;;;;;;;9.13;5.62;;;;;;;9.54;59.46;98054.34;4378929;32;20271;-71
2022/04/05 07:40:00;;;;;;;8.55;4.55;;;;;;;10.02;59.96;98050.53;4379158;32;20098;-72
2022/04/05 07:42:27;;;;;;;8.00;5.28;;;;;;;10.25;58.02;98047.41;4379175;32;20086;-72
2022/04/05 07:44:54;;;;;;;8.68;5.62;;;;;;;10.19;58.92;98040.16;4378779;32;20129;-72
2022/04/05 07:47:25;;;;;;;8.02;5.03;;;;;;;10.61;58.08;98039.47;4379091;32;20147;-72
2022/04/05 07:53:24;;;;;;;8.52;4.87;;;;;;;11.07;54.55;98050.53;4378692;32;20627;-70
2022/04/05 07:55:54;;;;;;;6.18;4.28;;;;;;;10.44;56.76;98044.63;4378786;32;20087;-70
2022/04/05 07:58:21;;;;;;;13.02;4.37;;;;;;;11.05;55.16;98047.22;4378669;32;20121;-70
2022/04/05 08:00:48;;;;;;;7.72;4.65;;;;;;;11.04;54.14;98048.22;4378760;32;20094;-71
2022/04/05 08:06:45;;;;;;;8.73;4.90;;;;;;;11.02;53.39;98055.41;4378727;32;20195;-70
2022/04/05 08:09:13;;;;;;;11.25;4.85;;;;;;;10.85;53.59;98057.13;4378492;32;20137;-70
2022/04/05 08:11:40;;;;;;;8.93;5.78;;;;;;;11.21;53.83;98053.53;4378525;32;20090;-70
2022/04/05 08:14:07;;;;;;;10.38;5.70;;;;;;;11.61;52.55;98058.06;4378729;32;20083;-70
2022/04/05 08:20:05;;;;;;;13.02;7.15;;;;;;;11.39;53.62;98048.97;4378751;32;20475;-71
2022/04/05 08:22:33;;;;;;;8.75;5.70;;;;;;;11.44;51.84;98054.56;4378618;32;20102;-70
2022/04/05 08:25:00;;;;;;;8.52;5.50;;;;;;;11.63;52.34;98055.28;4378598;32;20117;-71
2022/04/05 08:30:57;;;;;;;7.87;4.72;;;;;;;11.58;49.98;98057.53;4378094;32;20142;-70
2022/04/05 08:33:26;;;;;;;7.28;4.50;;;;;;;11.88;49.02;98061.34;4378392;32;20507;-70
2022/04/05 08:35:55;;;;;;;7.80;4.97;;;;;;;11.86;50.27;98065.97;4378387;32;20087;-70
2022/04/05 08:38:22;;;;;;;9.90;4.65;;;;;;;11.27;51.19;98063.38;4378481;32;20083;-70
2022/04/05 08:40:50;;;;;;;8.55;5.12;;;;;;;11.13;51.20;98059.56;4378101;32;20122;-71
2022/04/05 08:43:18;;;;;;;7.32;5.50;;;;;;;11.71;50.43;98065.78;4378073;32;20415;-71
2022/04/05 08:45:58;;;;;;;10.75;6.00;;;;;;;11.91;52.51;98063.66;4376934;32;20083;-70
2022/04/05 08:48:27;;;;;;;8.20;5.95;;;;;;;12.03;51.29;98056.31;4378047;32;20109;-71
2022/04/05 08:50:56;;;;;;;6.07;4.05;;;;;;;12.66;50.45;98051.34;4378590;32;20099;-71
2022/04/05 08:56:41;;;;;;;6.70;4.70;;;;;;;13.05;48.96;98053.16;4378087;32;20110;-71
2022/04/05 09:02:51;;;;;;;6.47;4.72;;;;;;;13.34;48.57;98049.09;4378030;32;20127;-70
2022/04/05 09:05:27;;;;;;;7.95;4.47;;;;;;;13.16;47.12;98044.91;4377823;32;20117;-70
2022/04/05 09:08:24;;;;;;;6.32;4.45;;;;;;;12.75;48.54;98048.50;4377799;32;20140;-71
2022/04/05 09:10:53;;;;;;;7.20;4.43;;;;;;;12.45;49.58;98055.31;4377829;32;20413;-71
2022/04/05 09:13:23;;;;;;;8.95;4.68;;;;;;;12.78;48.55;98045.53;4377735;32;20095;-71
2022/04/05 09:15:56;;;;;;;7.60;4.97;;;;;;;12.85;49.73;98053.56;4377615;32;20121;-71
2022/04/05 09:18:30;;;;;;;6.70;4.72;;;;;;;12.80;49.62;98053.25;4377835;32;20614;-71
2022/04/05 09:20:57;;;;;;;;;;;;;;;12.89;50.49;98049.59;4378099;32;20454;-70
2022/04/05 09:23:28;;;;;;;9.00;5.53;;;;;;;13.11;50.43;98052.47;4377492;32;20000;-71
2022/04/05 09:25:58;;;;;;;9.10;5.20;;;;;;;13.14;50.33;98046.88;4377889;32;20117;-71
2022/04/05 09:28:30;;;;;;;9.98;5.47;;;;;;;12.78;52.53;98049.97;4377434;32;20445;-71
2022/04/05 09:30:59;;;;;;;9.68;4.87;;;;;;;12.87;53.36;98051.59;4377564;32;20091;-71
2022/04/05 09:37:07;;;;;;;8.68;4.72;;;;;;;13.34;49.34;98055.22;4377773;32;20484;-71
2022/04/05 09:39:34;;;;;;;6.87;3.95;;;;;;;12.94;52.05;98060.44;4377447;32;20145;-70
2022/04/05 09:45:43;;;;;;;5.50;4.12;;;;;;;12.62;47.92;98057.91;4377775;32;20166;-71
2022/04/05 09:51:46;;;;;;;6.37;4.32;;;;;;;12.20;49.64;98068.47;4377430;32;20113;-72
2022/04/05 09:54:27;;;;;;;9.70;4.07;;;;;;;11.52;52.22;98072.13;4377344;32;20393;-72
2022/04/05 10:00:24;;;;;;;7.22;4.15;;;;;;;12.22;50.18;98065.69;4379700;32;20159;-72
2022/04/05 10:06:22;;;;;;;7.70;4.32;;;;;;;11.48;53.04;98063.75;4379538;32;20101;-71
2022/04/05 10:12:19;;;;;;;8.38;4.32;;;;;;;11.71;50.69;98068.38;4379687;32;20108;-72
2022/04/05 10:18:20;;;;;;;7.28;4.80;;;;;;;11.70;52.20;98067.59;4379590;32;20120;-72
2022/04/05 10:20:49;;;;;;;7.82;4.60;;;;;;;12.00;51.21;98061.88;4379273;32;20121;-71
2022/04/05 10:26:48;;;;;;;8.52;5.03;;;;;;;12.02;51.70;98057.28;4379379;32;20159;-71
2022/04/05 10:32:38;;;;;;;6.72;4.70;;;;;;;12.80;49.46;98047.19;4378189;32;20157;-70
2022/04/05 10:38:37;;;;;;;6.62;4.87;;;;;;;13.11;50.31;98053.31;4379159;32;20242;-69
2022/04/05 10:41:11;;;;;;;6.93;4.37;;;;;;;13.10;48.69;98040.34;4378449;32;20158;-69
2022/04/05 10:43:41;;;;;;;;;;;;;;;13.39;47.21;98042.34;4379662;32;20094;-70
2022/04/05 10:46:09;;;;;;;8.10;4.80;;;;;;;13.43;47.82;98043.66;4379504;32;20017;-71
2022/04/05 10:52:15;;;;;;;7.97;4.30;;;;;;;13.32;48.54;98039.56;4379310;32;20154;-70
2022/04/05 10:54:44;;;;;;;4.37;3.00;;;;;;;13.20;47.95;98040.09;4378815;32;20091;-70
2022/04/05 10:57:34;;;;;;;5.72;3.00;;;;;;;13.24;46.82;98033.53;4365492;32;20130;-70
2022/04/05 11:03:32;;;;;;;4.45;3.03;;;;;;;13.92;44.00;98031.97;4379065;32;20420;-71
2022/04/05 11:09:32;;;;;;;7.62;3.40;;;;;;;13.89;44.40;98026.25;4378525;32;20117;-71
2022/04/05 11:12:02;;;;;;;5.60;3.80;;;;;;;13.84;45.51;98040.75;4379168;32;20141;-71
2022/04/05 11:17:59;;;;;;;5.25;4.35;;;;;;;14.01;45.29;98036.16;4379445;32;20118;-69
2022/04/05 11:20:29;;;;;;;3.10;2.70;;;;;;;13.96;45.05;98035.88;4379150;32;20149;-70
2022/04/05 11:23:00;;;;;;;4.93;2.33;;;;;;;13.90;44.90;98031.31;4377839;32;20083;-70
2022/04/05 11:25:30;;;;;;;3.67;2.60;;;;;;;13.57;44.14;98034.19;4379313;32;20078;-70
2022/04/05 11:31:35;;;;;;;3.15;2.33;;;;;;;13.16;46.22;98050.16;4379091;32;20125;-71
2022/04/05 11:34:32;;;;;;;3.95;1.90;;;;;;;12.99;47.87;98032.81;4379121;32;20511;-71
2022/04/05 11:40:30;;;;;;;1.77;1.40;;;;;;;12.53;49.11;98046.59;4379090;32;20129;-69
2022/04/05 11:43:02;;;;;;;2.58;1.70;;;;;;;12.43;50.85;98057.28;4378780;32;20176;-70
2022/04/05 11:49:04;;;;;;;3.22;1.62;;;;;;;12.37;50.95;98053.50;4379092;32;20148;-69
2022/04/05 11:51:36;;;;;;;2.45;1.75;;;;;;;12.52;51.90;98050.19;4378857;32;20145;-69
2022/04/05 11:54:08;;;;;;;4.03;2.30;;;;;;;12.25;52.75;98052.22;4378803;32;20090;-70
2022/04/05 12:00:07;;;;;;;2.87;2.05;;;;;;;12.20;53.65;98049.25;4379034;32;20097;-70
2022/04/05 12:06:06;;;;;;;6.72;1.98;;;;;;;11.87;55.04;98046.62;4378599;32;20116;-69
2022/04/05 12:11:52;;;;;;;2.83;1.95;;;;;;;12.17;52.88;98050.41;4378824;32;20149;-70
2022/04/05 12:14:22;;;;;;;2.65;1.77;;;;;;;12.35;52.68;98038.88;4378601;32;20138;-70
2022/04/05 12:20:24;;;;;;;2.92;1.70;;;;;;;12.50;52.97;98026.72;4378777;32;20151;-70
2022/04/05 12:26:24;;;;;;;2.20;1.20;;;;;;;12.64;52.71;98024.38;4378631;32;20125;-70
2022/04/05 12:28:57;;;;;;;3.85;2.05;;;;;;;12.86;51.85;98036.00;4378451;32;20099;-70
2022/04/05 12:31:29;;;;;;;2.22;1.33;;;;;;;12.75;52.26;98024.03;4365288;32;20092;-70
2022/04/05 12:33:57;;;;;;;2.65;1.67;;;;;;;12.70;51.74;98021.91;4378442;32;20078;-69
2022/04/05 12:39:55;;;;;;;2.70;1.62;;;;;;;13.42;51.31;98022.78;4378358;32;20121;-70
2022/04/05 12:42:22;;;;;;;2.70;1.42;;;;;;;12.90;51.09;98024.12;4364820;32;20193;-70
2022/04/05 12:44:57;;;;;;;1.95;1.37;;;;;;;12.68;51.80;98028.31;4378477;32;20106;-70
2022/04/05 12:50:55;;;;;;;2.40;1.60;;;;;;;12.59;53.29;98024.88;4378004;32;20198;-71
2022/04/05 12:56:52;;;;;;;2.40;1.62;;;;;;;12.87;51.94;98022.69;4378011;32;20157;-71
2022/04/05 12:59:26;;;;;;;2.62;1.67;;;;;;;12.75;53.17;98018.78;4378093;32;20137;-71
2022/04/05 13:08:15;;;;;;;2.03;1.42;;;;;;;13.18;50.82;98010.53;4378150;32;20178;-70
2022/04/05 13:10:48;;;;;;;2.75;1.50;;;;;;;13.06;51.94;98007.47;4378306;32;20548;-70
2022/04/05 13:13:26;;;;;;;1.87;1.52;;;;;;;13.25;52.53;98004.41;4377957;32;20475;-71
2022/04/05 13:16:00;;;;;;;2.40;1.40;;;;;;;13.38;52.31;98003.06;4378278;32;20101;-71
2022/04/05 13:18:33;;;;;;;1.30;1.08;;;;;;;13.37;51.17;97998.78;4377876;32;20094;-70
2022/04/05 13:21:08;;;;;;;1.50;1.05;;;;;;;13.66;50.78;97991.03;4364378;32;20098;-70
2022/04/05 13:23:37;;;;;;;2.10;1.40;;;;;;;13.66;51.75;98004.19;4364242;32;20186;-70
2022/04/05 13:26:24;;;;;;;1.20;1.10;;;;;;;14.07;51.70;98002.22;4377954;32;20095;-70
2022/04/05 13:32:24;;;;;;;2.58;1.40;;;;;;;13.86;51.03;98010.78;4379306;32;20120;-71
2022/04/05 13:34:53;;;;;;;3.28;1.30;;;;;;;13.68;51.20;98009.25;4380296;32;20112;-71
2022/04/05 13:37:21;;;;;;;2.37;1.50;;;;;;;13.70;51.42;98001.19;4380207;32;20087;-71
2022/04/05 13:39:50;;;;;;;3.15;1.50;;;;;;;13.70;51.25;98001.19;4380011;32;20827;-70
2022/04/05 13:42:18;;;;;;;2.47;1.75;;;;;;;13.30;52.09;98017.84;4380196;32;20246;-71
2022/04/05 13:44:46;;;;;;;2.10;1.33;;;;;;;13.19;52.32;98012.19;4380248;32;20102;-71
2022/04/05 13:47:14;;;;;;;2.22;1.70;;;;;;;13.13;52.50;98008.44;4380349;32;20488;-71
2022/04/05 13:49:41;;;;;;;2.00;1.65;;;;;;;13.57;51.87;98001.78;4379852;32;20530;-71
2022/04/05 13:52:08;;;;;;;2.55;1.70;;;;;;;13.94;51.67;97997.56;4380036;32;20150;-71
2022/04/05 13:54:50;;;;;;;2.75;1.70;;;;;;;14.21;51.41;97998.78;4380126;32;20161;-71
2022/04/05 14:00:47;;;;;;;2.33;1.55;;;;;;;14.50;50.20;97986.63;4380110;32;20109;-70
2022/04/05 14:03:17;;;;;;;2.75;1.90;;;;;;;14.52;50.11;97990.75;4380167;32;20102;-71
2022/04/05 14:05:44;;;;;;;2.55;1.75;;;;;;;14.89;49.23;97990.84;4380112;32;20095;-70
2022/04/05 14:08:11;;;;;;;2.12;1.83;;;;;;;14.35;49.84;97990.09;4379906;32;20087;-70
2022/04/05 14:10:39;;;;;;;3.53;1.87;;;;;;;14.20;49.96;97991.88;4379714;32;20141;-70
2022/04/05 14:13:27;;;;;;;4.55;2.08;;;;;;;13.72;51.29;97975.53;4380014;32;20090;-70
2022/04/05 14:15:55;;;;;;;2.53;1.62;;;;;;;13.54;51.34;97981.91;4379946;32;20121;-71
2022/04/05 14:18:22;;;;;;;2.25;1.62;;;;;;;13.47;53.27;97973.06;4379870;32;20468;-71
2022/04/05 14:20:50;;;;;;;3.33;1.87;;;;;;;13.50;52.24;97970.09;4379948;32;20154;-71
2022/04/05 14:23:17;;;;;;;3.05;1.95;;;;;;;13.69;52.18;97975.84;4379817;32;20087;-71